LIRQ/FLR METAR and TAF weather

Enter ICAO airport designator
Station Type Date Time Source
LIRQ METAR 2021/05/11 16:50 UTC NOAA

LIRQ 111650Z 17004KT 9999 SCT015 15/14 Q1010


Station Type Date Time Source
LIRQ Decoded METAR 2021/05/11 16:50 UTC NOAA

Firenze / Peretola, Italy (LIRQ) 43-48N 011-12E 38M
May 11, 2021 - 12:50 PM EDT / 2021.05.11 1650 UTC
Wind: from the S (170 degrees) at 5 MPH (4 KT):0
Visibility: greater than 7 mile(s):0
Sky conditions: partly cloudy
Temperature: 59 F (15 C)
Dew Point: 57 F (14 C)
Relative Humidity: 93%
Pressure (altimeter): 29.83 in. Hg (1010 hPa)
ob: LIRQ 111650Z 17004KT 9999 SCT015 15/14 Q1010
cycle: 17

Station Type Date Time Source
LIRQ TAF 2021/05/11 12:51 UTC NOAA

TAF COR LIRQ 111343Z 1112/1212 VRB05KT 9999 FEW040
TEMPO 1112/1118 SHRA

Example: see airport list